createdAt,value
2019-06-01T00:00:28.313Z,13.1
2019-06-01T00:05:28.219Z,13
2019-06-01T00:10:28.207Z,12.9
2019-06-01T00:15:28.254Z,12.9
2019-06-01T00:20:28.252Z,12.7
2019-06-01T00:25:28.243Z,12.7
2019-06-01T00:30:28.541Z,12.6
2019-06-01T00:35:28.614Z,12.5
2019-06-01T00:40:28.482Z,12.4
2019-06-01T00:45:28.521Z,12.3
2019-06-01T00:50:28.476Z,12.2
2019-06-01T00:55:28.843Z,12.2
2019-06-01T01:00:42.735Z,12.1
2019-06-01T01:05:28.756Z,12
2019-06-01T01:10:29.228Z,11.9
2019-06-01T01:15:29.531Z,11.9
2019-06-01T01:20:29.527Z,11.8
2019-06-01T01:25:29.570Z,11.8
2019-06-01T01:30:29.481Z,11.7
2019-06-01T01:35:29.528Z,11.6
2019-06-01T01:40:29.506Z,11.5
2019-06-01T01:45:29.468Z,11.5
2019-06-01T01:50:29.491Z,11.4
2019-06-01T01:55:29.540Z,11.3
2019-06-01T02:00:29.476Z,11.3
2019-06-01T02:05:29.518Z,11.2
2019-06-01T02:10:29.759Z,11.1
2019-06-01T02:15:29.750Z,11.1
2019-06-01T02:20:30.004Z,11
2019-06-01T02:25:30.037Z,10.9
2019-06-01T02:30:30.399Z,10.9
2019-06-01T02:35:30.294Z,10.8
2019-06-01T02:40:31.234Z,10.8
2019-06-01T02:45:31.397Z,10.7
2019-06-01T02:50:31.190Z,10.6
2019-06-01T02:55:31.315Z,10.6
2019-06-01T03:00:32.332Z,10.6
2019-06-01T03:05:32.115Z,10.5
2019-06-01T03:10:32.081Z,10.4
2019-06-01T03:15:32.333Z,10.4
2019-06-01T03:20:32.342Z,10.3
2019-06-01T03:25:33.346Z,10.3
2019-06-01T03:30:34.253Z,10.3
2019-06-01T03:35:34.548Z,10.2
2019-06-01T03:40:33.905Z,10.2
2019-06-01T03:45:35.176Z,10.1
2019-06-01T03:50:33.970Z,10.1
2019-06-01T03:55:36.850Z,10.1
2019-06-01T04:00:33.950Z,10.1
2019-06-01T04:05:36.669Z,10.1
2019-06-01T04:10:33.877Z,10.1
2019-06-01T04:15:34.493Z,10.1
2019-06-01T04:20:34.640Z,10.2
2019-06-01T04:25:35.615Z,10.2
2019-06-01T04:30:36.224Z,10.3
2019-06-01T04:35:37.589Z,10.4
2019-06-01T04:40:35.513Z,10.4
2019-06-01T04:45:34.992Z,10.5
2019-06-01T04:50:35.059Z,10.6
2019-06-01T04:55:35.019Z,10.7
2019-06-01T05:00:35.034Z,10.8
2019-06-01T05:05:35.233Z,10.9
2019-06-01T05:10:35.063Z,11
2019-06-01T05:15:35.062Z,11.1
2019-06-01T05:20:35.098Z,11.3
2019-06-01T05:25:35.117Z,11.4
2019-06-01T05:30:37.172Z,11.6
2019-06-01T05:35:37.137Z,11.8
2019-06-01T05:40:37.088Z,12.1
2019-06-01T05:45:37.081Z,12.3
2019-06-01T05:50:37.058Z,12.4
2019-06-01T05:55:37.045Z,12.6
2019-06-01T06:00:37.094Z,12.9
2019-06-01T06:05:37.056Z,13
2019-06-01T06:10:37.113Z,13.1
2019-06-01T06:15:40.333Z,13.3
2019-06-01T06:20:40.324Z,13.5
2019-06-01T06:25:41.463Z,13.6
2019-06-01T06:30:41.047Z,13.7
2019-06-01T06:35:40.924Z,13.9
2019-06-01T06:40:42.590Z,14.1
2019-06-01T06:45:42.834Z,14.3
2019-06-01T06:50:42.830Z,14.5
2019-06-01T06:55:42.869Z,14.7
2019-06-01T07:00:42.915Z,15
2019-06-01T07:05:42.949Z,15.4
2019-06-01T07:10:48.031Z,15.5
2019-06-01T07:15:47.939Z,15.6
2019-06-01T07:20:47.907Z,15.8
2019-06-01T07:25:47.903Z,15.9
2019-06-01T07:30:50.612Z,16.3
2019-06-01T07:35:48.051Z,16.3
2019-06-01T07:40:49.425Z,16.5
2019-06-01T07:45:48.999Z,16.7
2019-06-01T07:50:48.641Z,16.9
2019-06-01T07:55:55.061Z,17.1
2019-06-01T08:00:54.927Z,17.3
2019-06-01T08:05:59.915Z,17.6
2019-06-01T08:10:59.937Z,17.8
2019-06-01T08:16:01.076Z,18
2019-06-01T08:21:01.134Z,18.2
2019-06-01T08:26:01.103Z,18.5
2019-06-01T08:31:01.099Z,18.9
2019-06-01T08:36:01.323Z,19.1
2019-06-01T08:41:01.119Z,19.5
2019-06-01T08:46:01.136Z,19.8
2019-06-01T08:51:01.233Z,20.1
2019-06-01T08:56:01.112Z,20.3
2019-06-01T09:01:01.148Z,20.5
2019-06-01T09:06:01.153Z,20.6
2019-06-01T09:11:01.144Z,20.9
2019-06-01T09:16:01.082Z,21.2
2019-06-01T09:21:01.148Z,21.4
2019-06-01T09:26:02.933Z,21.8
2019-06-01T09:31:02.809Z,22.1
2019-06-01T09:36:03.112Z,22.5
2019-06-01T09:41:03.217Z,22.7
2019-06-01T09:46:03.082Z,23
2019-06-01T09:51:03.143Z,23.1
2019-06-01T09:56:03.609Z,23.5
2019-06-01T10:01:05.046Z,23.8
2019-06-01T10:06:05.775Z,24.1
2019-06-01T10:11:05.015Z,24.2
2019-06-01T10:16:05.254Z,24.6
2019-06-01T10:21:05.038Z,25
2019-06-01T10:26:05.028Z,25.3
2019-06-01T10:31:05.002Z,25.6
2019-06-01T10:36:18.986Z,26
2019-06-01T10:41:05.046Z,26
2019-06-01T10:46:05.117Z,26.2
2019-06-01T10:51:05.101Z,26
2019-06-01T10:56:05.085Z,26.6
2019-06-01T11:01:05.090Z,26.6
2019-06-01T11:06:05.043Z,26.7
2019-06-01T11:11:05.338Z,26.8
2019-06-01T11:16:05.188Z,26.9
2019-06-01T11:21:05.080Z,26.3
2019-06-01T11:26:05.112Z,26.3
2019-06-01T11:31:05.073Z,26.8
2019-06-01T11:36:05.090Z,27.2
2019-06-01T11:41:05.104Z,26.8
2019-06-01T11:46:05.096Z,26.4
2019-06-01T11:51:05.099Z,26.7
2019-06-01T11:56:05.090Z,26.9
2019-06-01T12:01:05.033Z,26.8
2019-06-01T12:06:05.059Z,27.2
2019-06-01T12:11:05.124Z,27.4
2019-06-01T12:16:05.267Z,27
2019-06-01T12:21:05.211Z,27.6
2019-06-01T12:26:05.078Z,27.5
2019-06-01T12:31:05.271Z,27.9
2019-06-01T12:36:05.565Z,28.2
2019-06-01T12:41:05.355Z,27.5
2019-06-01T12:46:07.452Z,27.5
2019-06-01T12:51:06.659Z,27.9
2019-06-01T12:56:06.657Z,28
2019-06-01T13:01:06.822Z,28.2
2019-06-01T13:06:06.919Z,28.3
2019-06-01T13:11:06.584Z,28.5
2019-06-01T13:16:06.525Z,28.5
2019-06-01T13:21:06.618Z,28.1
2019-06-01T13:26:06.619Z,28.4
2019-06-01T13:31:06.694Z,28.7
2019-06-01T13:36:06.699Z,28.4
2019-06-01T13:41:06.568Z,28.5
2019-06-01T13:46:07.775Z,28.7
2019-06-01T13:51:08.722Z,29
2019-06-01T13:56:09.418Z,29.2
2019-06-01T14:01:10.963Z,29.1
2019-06-01T14:06:06.813Z,28.7
2019-06-01T14:11:06.590Z,28.7
2019-06-01T14:16:06.585Z,28.8
2019-06-01T14:21:06.631Z,28.4
2019-06-01T14:26:06.630Z,28.9
2019-06-01T14:31:06.637Z,29
2019-06-01T14:36:06.607Z,28.9
2019-06-01T14:41:06.703Z,28.8
2019-06-01T14:46:06.675Z,28.9
2019-06-01T14:51:06.627Z,29
2019-06-01T14:56:06.809Z,29.1
2019-06-01T15:01:07.106Z,29
2019-06-01T15:06:06.870Z,29.2
2019-06-01T15:11:06.834Z,29.3
2019-06-01T15:16:06.932Z,29.1
2019-06-01T15:21:06.874Z,29.2
2019-06-01T15:26:06.897Z,29.2
2019-06-01T15:31:07.292Z,29.4
2019-06-01T15:36:07.117Z,29.5
2019-06-01T15:41:07.148Z,29.5
2019-06-01T15:46:07.123Z,29.6
2019-06-01T15:51:07.426Z,29.6
2019-06-01T15:56:07.178Z,29.6
2019-06-01T16:01:07.382Z,29.6
2019-06-01T16:06:08.032Z,29.4
2019-06-01T16:11:08.045Z,29.1
2019-06-01T16:16:08.613Z,28.9
2019-06-01T16:21:08.546Z,28.8
2019-06-01T16:26:15.595Z,28.8
2019-06-01T16:31:08.564Z,28.9
2019-06-01T16:36:08.560Z,28.8
2019-06-01T16:41:09.431Z,28.8
2019-06-01T16:46:09.412Z,28.9
2019-06-01T16:51:09.428Z,28.7
2019-06-01T16:56:09.439Z,28.5
2019-06-01T17:01:09.427Z,28.6
2019-06-01T17:06:09.672Z,28.5
2019-06-01T17:11:09.756Z,28.4
2019-06-01T17:16:09.911Z,28.1
2019-06-01T17:21:10.458Z,28
2019-06-01T17:26:10.169Z,28
2019-06-01T17:31:10.149Z,27.9
2019-06-01T17:36:10.374Z,27.8
2019-06-01T17:41:10.163Z,27.6
2019-06-01T17:46:10.237Z,27.4
2019-06-01T17:51:10.167Z,27.5
2019-06-01T17:56:10.238Z,27.3
2019-06-01T18:01:10.163Z,27.2
2019-06-01T18:06:10.206Z,27.1
2019-06-01T18:11:10.274Z,27
2019-06-01T18:16:10.419Z,26.9
2019-06-01T18:21:10.441Z,26.8
2019-06-01T18:26:10.961Z,26.7
2019-06-01T18:31:10.724Z,26.6
2019-06-01T18:36:11.314Z,26.4
2019-06-01T18:41:16.656Z,26.3
2019-06-01T18:46:10.443Z,26
2019-06-01T18:51:12.199Z,25.8
2019-06-01T18:56:10.754Z,25.5
2019-06-01T19:01:10.812Z,25.2
2019-06-01T19:06:12.017Z,24.9
2019-06-01T19:11:29.176Z,24.6
2019-06-01T19:16:18.079Z,24.4
2019-06-01T19:21:31.550Z,24
2019-06-01T19:26:34.639Z,23.8
2019-06-01T19:31:34.614Z,23.5
2019-06-01T19:36:34.563Z,23.2
2019-06-01T19:41:44.023Z,22.9
2019-06-01T19:46:34.628Z,22.6
2019-06-01T19:51:59.362Z,22.3
2019-06-01T19:56:57.951Z,22.1
2019-06-01T20:01:59.565Z,21.9
2019-06-01T20:07:17.187Z,21.6
2019-06-01T20:12:16.384Z,21.4
2019-06-01T20:17:27.799Z,21.2
2019-06-01T20:22:25.410Z,20.9
2019-06-01T20:27:39.126Z,20.7
2019-06-01T20:32:33.017Z,20.5
2019-06-01T20:37:33.133Z,20.3
2019-06-01T20:42:38.776Z,20.1
2019-06-01T20:47:41.161Z,19.9
2019-06-01T20:52:41.396Z,19.7
2019-06-01T21:04:33.304Z,19.2
2019-06-01T21:09:41.655Z,19.1
2019-06-01T21:14:44.422Z,18.9
2019-06-01T21:19:45.338Z,18.8
2019-06-01T21:24:47.402Z,18.6
2019-06-01T21:29:48.027Z,18.4
2019-06-01T21:34:47.989Z,18.3
2019-06-01T21:40:17.304Z,18.1
2019-06-01T21:45:33.096Z,18
2019-06-01T21:50:49.226Z,17.8
2019-06-01T21:55:49.145Z,17.7
2019-06-01T22:00:49.150Z,17.5
2019-06-01T22:05:49.182Z,17.4
2019-06-01T22:10:49.205Z,17.3
2019-06-01T22:15:49.192Z,17.2
2019-06-01T22:20:49.197Z,17.1
2019-06-01T22:25:49.213Z,16.9
2019-06-01T22:30:49.169Z,16.9
2019-06-01T22:35:49.229Z,16.7
2019-06-01T22:40:49.190Z,16.6
2019-06-01T22:45:49.387Z,16.5
2019-06-01T22:50:49.269Z,16.4
2019-06-01T22:55:49.256Z,16.2
2019-06-01T23:00:49.250Z,16.1
2019-06-01T23:05:49.275Z,16
2019-06-01T23:10:49.742Z,15.9
2019-06-01T23:15:49.224Z,15.8
2019-06-01T23:20:49.244Z,15.8
2019-06-01T23:25:49.260Z,15.7
2019-06-01T23:30:49.303Z,15.6
2019-06-01T23:35:49.295Z,15.5
2019-06-01T23:40:49.225Z,15.4
2019-06-01T23:45:49.271Z,15.3
2019-06-01T23:50:49.529Z,15.3
2019-06-01T23:55:51.522Z,15.2
